メインページ
METAR-TAF:

METAR-TAF

空港 :

Yüksekova, トルコ

緯度: 37-33-06N, 経度: 44-14-01E, 海抜: 1950m

現時点の気象観測

当レポートは17分前の09:50(UTC)に作成
無風
気温 2°C
湿度 69%
気圧 1025 hPa
視程: 7000m
高度1200ftの雲はほとんどない
高度3000ftの千切れ雲あり

METAR: LTCW 190950Z 00000KT 7000 FEW012 BKN030 02/M03 Q1025

時間: 13:07 (10:07 UTC)

予報

当レポートは2時間27分前の07:40(UTC)に作成
予報は19日の 09時(UTC)から 19日の 18時(UTC)まで有効
変向風 2kt
視程: 7000m
高度1200ftの雲はほとんどない
高度2500ftの千切れ雲あり
19日の 09時(UTC)から 19日の 12時(UTC)まで徐々に
高度3500ftの雲は散在している

TAF: LTCW 190740Z 1909/1918 VRB02KT 7000 FEW012 BKN025 BECMG 1909/1912 SCT035

4,000以上の空港の気象観測と天気予報(METAR報とTAF報)

利用可能な観測所は地図上に黄色い丸と赤い丸で示す。

丸の上にカーソルを重ねると観測所名を参照できる。

次にクリックすると気象観測と天気予報を参照できる。

マップの切り替え:黒色「×」印の緑ボタンをクリックして拡大、「-」印の緑ボタンをクリックして縮小、緑色の三角印をクリックして隣りの地図に切り替え


METAR-TAF: